Time;durP1;ratioP1;P1;durP2;ratioP2;P2;SDS_P1;SDS_P2;PMS_P1;PMS_P2;Temp;Humidity;BMP_temperature;BMP_pressure;BME280_temperature;BME280_humidity;BME280_pressure;Samples;Min_cycle;Max_cycle;Signal;HPM_P1;HPM_P2
2024/04/13 00:00:17;;;;;;;;;10.67;9.67;;;;;;;;5502810;25;43862;-74
2024/04/13 00:02:42;;;;;;;;;13.00;12.00;;;;;;;;5502564;25;43873;-75
2024/04/13 00:05:07;;;;;;;;;11.33;11.00;;;;;;;;5502429;25;44817;-75
2024/04/13 00:07:33;;;;;;;;;13.67;11.67;;;;;;;;5502655;25;43769;-75
2024/04/13 00:09:58;;;;;;;;;12.33;11.00;;;;;;;;5502969;25;43931;-75
2024/04/13 00:12:23;;;;;;;;;13.00;12.67;;;;;;;;5502233;25;43885;-74
2024/04/13 00:14:51;;;;;;;;;11.67;11.00;;;;;;;;5502208;25;43895;-75
2024/04/13 00:17:16;;;;;;;;;14.33;13.00;;;;;;;;5502273;25;43934;-74
2024/04/13 00:19:41;;;;;;;;;9.33;9.33;;;;;;;;5502392;25;43926;-74
2024/04/13 00:22:06;;;;;;;;;10.00;10.00;;;;;;;;5502223;25;43840;-75
2024/04/13 00:24:32;;;;;;;;;11.00;9.67;;;;;;;;5502231;25;43959;-75
2024/04/13 00:26:57;;;;;;;;;13.33;12.00;;;;;;;;5500857;25;43903;-75
2024/04/13 00:29:22;;;;;;;;;11.00;10.67;;;;;;;;5502513;25;43829;-75
2024/04/13 00:31:47;;;;;;;;;12.33;11.00;;;;;;;;5502090;25;43921;-75
2024/04/13 00:34:13;;;;;;;;;11.67;10.67;;;;;;;;5501842;25;44063;-75
2024/04/13 00:36:38;;;;;;;;;11.00;9.67;;;;;;;;5502116;25;43780;-75
2024/04/13 00:39:06;;;;;;;;;11.00;11.00;;;;;;;;5502234;25;43924;-74
2024/04/13 00:41:31;;;;;;;;;10.00;10.00;;;;;;;;5501594;25;43888;-74
2024/04/13 00:43:57;;;;;;;;;13.00;11.00;;;;;;;;5501737;25;43920;-75
2024/04/13 00:46:24;;;;;;;;;13.00;12.00;;;;;;;;5501432;25;43855;-75
2024/04/13 00:48:50;;;;;;;;;15.00;15.00;;;;;;;;5501850;25;43827;-74
2024/04/13 00:51:17;;;;;;;;;11.00;11.00;;;;;;;;5501809;25;43909;-74
2024/04/13 00:53:43;;;;;;;;;15.00;14.33;;;;;;;;5501591;25;43863;-75
2024/04/13 00:56:10;;;;;;;;;15.00;15.00;;;;;;;;5500044;25;44028;-74
2024/04/13 00:58:36;;;;;;;;;14.67;14.67;;;;;;;;5501223;25;43882;-75
2024/04/13 01:01:02;;;;;;;;;15.33;13.67;;;;;;;;5498806;25;43906;-74
2024/04/13 01:03:27;;;;;;;;;12.00;12.00;;;;;;;;5499961;25;43887;-75
2024/04/13 01:05:53;;;;;;;;;15.67;15.67;;;;;;;;5501072;25;43873;-74
2024/04/13 01:08:20;;;;;;;;;13.00;12.33;;;;;;;;5501034;25;44236;-75
2024/04/13 01:10:45;;;;;;;;;14.00;13.00;;;;;;;;5500929;25;43973;-74
2024/04/13 01:13:11;;;;;;;;;14.67;14.67;;;;;;;;5500850;25;43874;-75
2024/04/13 01:15:37;;;;;;;;;15.33;13.67;;;;;;;;5501119;25;43835;-75
2024/04/13 01:18:05;;;;;;;;;16.00;16.00;;;;;;;;5499253;25;43918;-75
2024/04/13 01:20:33;;;;;;;;;16.33;13.33;;;;;;;;5500979;25;44232;-74
2024/04/13 01:22:59;;;;;;;;;12.33;12.33;;;;;;;;5501003;25;43994;-76
2024/04/13 01:25:25;;;;;;;;;14.00;14.00;;;;;;;;5501195;25;43866;-75
2024/04/13 01:27:50;;;;;;;;;13.00;13.00;;;;;;;;5501273;25;44072;-75
2024/04/13 01:30:16;;;;;;;;;14.33;13.00;;;;;;;;5500724;25;44019;-74
2024/04/13 01:32:41;;;;;;;;;17.33;16.00;;;;;;;;5500560;25;44675;-75
2024/04/13 01:35:10;;;;;;;;;17.67;15.00;;;;;;;;5500362;25;43896;-75
2024/04/13 01:37:37;;;;;;;;;13.67;13.67;;;;;;;;5500522;25;43909;-74
2024/04/13 01:40:03;;;;;;;;;13.67;13.67;;;;;;;;5503985;25;43802;-75
2024/04/13 01:42:28;;;;;;;;;16.00;15.67;;;;;;;;5503839;25;43804;-74
2024/04/13 01:44:54;;;;;;;;;14.00;13.67;;;;;;;;5504095;25;43839;-75
2024/04/13 01:47:19;;;;;;;;;14.33;14.33;;;;;;;;5504147;25;43810;-74
2024/04/13 01:49:44;;;;;;;;;17.00;16.00;;;;;;;;5504152;25;43761;-75
2024/04/13 01:52:09;;;;;;;;;16.67;13.33;;;;;;;;5504147;25;43878;-75
2024/04/13 01:54:35;;;;;;;;;14.67;13.33;;;;;;;;5504197;25;43919;-75
2024/04/13 01:57:00;;;;;;;;;15.00;15.00;;;;;;;;5504102;25;44162;-74
2024/04/13 01:59:25;;;;;;;;;12.00;11.67;;;;;;;;5504058;25;43926;-75
2024/04/13 02:01:50;;;;;;;;;14.67;14.00;;;;;;;;5503787;25;44031;-75
2024/04/13 02:04:15;;;;;;;;;13.33;13.33;;;;;;;;5503982;25;43811;-75
2024/04/13 02:06:40;;;;;;;;;15.00;15.00;;;;;;;;5504209;25;43844;-74
2024/04/13 02:09:06;;;;;;;;;15.67;15.67;;;;;;;;5503941;25;43904;-76
2024/04/13 02:11:31;;;;;;;;;13.33;13.33;;;;;;;;5503632;25;43814;-75
2024/04/13 02:13:56;;;;;;;;;16.33;16.33;;;;;;;;5503878;25;43929;-75
2024/04/13 02:16:21;;;;;;;;;14.67;14.00;;;;;;;;5504166;25;43944;-75
2024/04/13 02:18:46;;;;;;;;;15.67;15.33;;;;;;;;5503672;25;44076;-75
2024/04/13 02:21:12;;;;;;;;;14.33;14.33;;;;;;;;5503810;25;43998;-75
2024/04/13 02:23:37;;;;;;;;;14.33;13.67;;;;;;;;5503854;25;43897;-75
2024/04/13 02:26:02;;;;;;;;;16.00;14.67;;;;;;;;5503993;25;43906;-75
2024/04/13 02:28:28;;;;;;;;;14.00;14.00;;;;;;;;5503845;25;43833;-74
2024/04/13 02:30:54;;;;;;;;;16.33;14.33;;;;;;;;5503570;25;44848;-75
2024/04/13 02:33:19;;;;;;;;;14.67;14.67;;;;;;;;5503625;25;43842;-75
2024/04/13 02:35:44;;;;;;;;;15.00;13.33;;;;;;;;5503654;25;43964;-75
2024/04/13 02:38:09;;;;;;;;;14.67;13.00;;;;;;;;5503634;25;44026;-74
2024/04/13 02:40:34;;;;;;;;;12.67;12.67;;;;;;;;5503731;25;43833;-74
2024/04/13 02:43:01;;;;;;;;;13.00;12.00;;;;;;;;5503476;25;43805;-75
2024/04/13 02:45:26;;;;;;;;;14.00;13.67;;;;;;;;5503787;25;43968;-75
2024/04/13 02:47:51;;;;;;;;;11.33;10.67;;;;;;;;5503669;25;43758;-74
2024/04/13 02:50:17;;;;;;;;;16.00;14.00;;;;;;;;5502437;25;43877;-75
2024/04/13 02:52:42;;;;;;;;;12.67;12.67;;;;;;;;5503533;25;43893;-75
2024/04/13 02:55:07;;;;;;;;;18.00;16.00;;;;;;;;5503892;25;44063;-74
2024/04/13 02:57:32;;;;;;;;;17.00;15.00;;;;;;;;5503286;25;43710;-74
2024/04/13 02:59:57;;;;;;;;;21.00;17.00;;;;;;;;5503503;25;43859;-75
2024/04/13 03:02:24;;;;;;;;;14.33;13.00;;;;;;;;5503263;25;43716;-75
2024/04/13 03:04:50;;;;;;;;;17.00;15.67;;;;;;;;5503325;25;43722;-75
2024/04/13 03:07:15;;;;;;;;;13.00;13.00;;;;;;;;5503143;25;43881;-75
2024/04/13 03:09:40;;;;;;;;;15.00;15.00;;;;;;;;5503532;25;44889;-75
2024/04/13 03:12:06;;;;;;;;;17.00;17.00;;;;;;;;5503394;25;43809;-74
2024/04/13 03:14:31;;;;;;;;;15.00;15.00;;;;;;;;5502831;25;43980;-75
2024/04/13 03:16:56;;;;;;;;;20.33;19.67;;;;;;;;5502393;25;44158;-75
2024/04/13 03:19:21;;;;;;;;;15.67;15.67;;;;;;;;5501237;25;45065;-73
2024/04/13 03:21:47;;;;;;;;;14.33;14.00;;;;;;;;5500858;25;44003;-75
2024/04/13 03:24:12;;;;;;;;;15.33;12.67;;;;;;;;5503400;25;44048;-74
2024/04/13 03:26:37;;;;;;;;;13.00;13.00;;;;;;;;5503300;25;43867;-75
2024/04/13 03:29:03;;;;;;;;;15.33;15.33;;;;;;;;5503201;25;43911;-75
2024/04/13 03:31:28;;;;;;;;;16.67;16.00;;;;;;;;5503146;25;43933;-75
2024/04/13 03:33:53;;;;;;;;;18.67;18.00;;;;;;;;5503108;25;43885;-75
2024/04/13 03:36:19;;;;;;;;;14.33;14.00;;;;;;;;5502882;25;43912;-75
2024/04/13 03:38:45;;;;;;;;;17.00;15.00;;;;;;;;5503071;25;44619;-74
2024/04/13 03:41:11;;;;;;;;;17.67;16.33;;;;;;;;5502834;25;43755;-74
2024/04/13 03:43:37;;;;;;;;;16.33;16.33;;;;;;;;5503341;25;43783;-75
2024/04/13 03:46:03;;;;;;;;;15.67;15.67;;;;;;;;5502626;25;44118;-74
2024/04/13 03:48:28;;;;;;;;;17.33;16.33;;;;;;;;5502889;25;44372;-75
2024/04/13 03:50:53;;;;;;;;;18.67;16.00;;;;;;;;5502895;25;43872;-74
2024/04/13 03:53:18;;;;;;;;;17.67;17.00;;;;;;;;5502988;25;43825;-74
2024/04/13 03:55:44;;;;;;;;;18.33;17.00;;;;;;;;5503193;25;43807;-75
2024/04/13 03:58:10;;;;;;;;;20.00;18.00;;;;;;;;5502429;25;43984;-74
2024/04/13 04:00:35;;;;;;;;;18.33;18.33;;;;;;;;5502860;25;43874;-74
2024/04/13 04:03:00;;;;;;;;;17.33;16.33;;;;;;;;5500725;25;44029;-74
2024/04/13 04:05:27;;;;;;;;;18.00;17.00;;;;;;;;5502833;25;44105;-74
2024/04/13 04:07:52;;;;;;;;;18.00;18.00;;;;;;;;5502730;25;43917;-74
2024/04/13 04:10:17;;;;;;;;;19.67;17.33;;;;;;;;5503021;25;43794;-76
2024/04/13 04:12:43;;;;;;;;;17.00;15.00;;;;;;;;5502660;25;43941;-74
2024/04/13 04:15:08;;;;;;;;;17.67;14.67;;;;;;;;5502607;25;43908;-75
2024/04/13 04:17:33;;;;;;;;;17.67;17.33;;;;;;;;5502565;25;43921;-74
2024/04/13 04:19:58;;;;;;;;;21.67;20.00;;;;;;;;5502518;25;44043;-77
2024/04/13 04:22:24;;;;;;;;;16.67;16.00;;;;;;;;5502710;25;43772;-77
2024/04/13 04:24:50;;;;;;;;;18.67;18.67;;;;;;;;5502610;25;43776;-77
2024/04/13 04:27:16;;;;;;;;;22.33;20.00;;;;;;;;5502417;25;43921;-73
2024/04/13 04:29:42;;;;;;;;;20.67;15.33;;;;;;;;5502571;25;43653;-74
2024/04/13 04:32:08;;;;;;;;;20.00;19.00;;;;;;;;5502434;25;43717;-77
2024/04/13 04:34:33;;;;;;;;;20.33;19.00;;;;;;;;5502080;25;43741;-76
2024/04/13 04:36:58;;;;;;;;;18.00;16.00;;;;;;;;5502009;25;44903;-76
2024/04/13 04:39:23;;;;;;;;;19.67;19.33;;;;;;;;5502223;25;43956;-76
2024/04/13 04:41:48;;;;;;;;;18.33;17.33;;;;;;;;5502076;25;44092;-76
2024/04/13 04:44:14;;;;;;;;;17.67;15.67;;;;;;;;5502010;25;44102;-76
2024/04/13 04:46:39;;;;;;;;;17.67;17.33;;;;;;;;5501707;25;43866;-77
2024/04/13 04:49:05;;;;;;;;;17.67;16.00;;;;;;;;5501859;25;43918;-76
2024/04/13 04:51:30;;;;;;;;;17.33;17.33;;;;;;;;5502170;25;43808;-76
2024/04/13 04:53:56;;;;;;;;;19.67;18.67;;;;;;;;5501791;25;43897;-76
2024/04/13 04:56:21;;;;;;;;;18.67;18.67;;;;;;;;5501697;25;44055;-76
2024/04/13 04:58:46;;;;;;;;;16.00;16.00;;;;;;;;5501738;25;43936;-76
2024/04/13 05:01:12;;;;;;;;;19.33;17.33;;;;;;;;5501717;25;43940;-76
2024/04/13 05:03:37;;;;;;;;;21.00;20.67;;;;;;;;5501440;25;43842;-76
2024/04/13 05:06:02;;;;;;;;;17.33;15.67;;;;;;;;5501575;25;43866;-76
2024/04/13 05:08:27;;;;;;;;;17.00;16.00;;;;;;;;5501426;25;43925;-76
2024/04/13 05:10:53;;;;;;;;;18.33;18.33;;;;;;;;5501125;25;43808;-76
2024/04/13 05:13:19;;;;;;;;;20.00;18.67;;;;;;;;5501187;25;44008;-76
2024/04/13 05:15:44;;;;;;;;;18.00;17.67;;;;;;;;5502307;25;44004;-76
2024/04/13 05:18:09;;;;;;;;;19.33;16.33;;;;;;;;5503702;25;44023;-76
2024/04/13 05:20:36;;;;;;;;;20.00;19.33;;;;;;;;5504577;25;43816;-76
2024/04/13 05:23:02;;;;;;;;;16.67;15.00;;;;;;;;5504604;25;43758;-76
2024/04/13 05:25:27;;;;;;;;;19.33;17.67;;;;;;;;5504488;25;43876;-76
2024/04/13 05:27:52;;;;;;;;;19.33;19.33;;;;;;;;5504469;25;44546;-76
2024/04/13 05:30:17;;;;;;;;;21.00;16.67;;;;;;;;5504691;25;43831;-76
2024/04/13 05:32:43;;;;;;;;;21.33;19.33;;;;;;;;5504377;25;43754;-76
2024/04/13 05:35:08;;;;;;;;;17.33;16.67;;;;;;;;5503795;25;43832;-76
2024/04/13 05:37:33;;;;;;;;;22.00;18.00;;;;;;;;5504546;25;43911;-77
2024/04/13 05:39:59;;;;;;;;;16.67;16.33;;;;;;;;5504603;25;43809;-76
2024/04/13 05:42:24;;;;;;;;;19.67;17.33;;;;;;;;5504026;25;44103;-76
2024/04/13 05:44:49;;;;;;;;;19.67;17.33;;;;;;;;5503720;25;44100;-76
2024/04/13 05:47:14;;;;;;;;;19.00;18.00;;;;;;;;5503955;25;43810;-76
2024/04/13 05:49:39;;;;;;;;;17.33;17.33;;;;;;;;5504485;25;43972;-76
2024/04/13 05:52:05;;;;;;;;;16.67;16.67;;;;;;;;5504450;25;43873;-77
2024/04/13 05:54:30;;;;;;;;;17.00;17.00;;;;;;;;5504145;25;45125;-77
2024/04/13 05:56:55;;;;;;;;;18.00;17.00;;;;;;;;5503947;25;44048;-76
2024/04/13 05:59:21;;;;;;;;;16.00;15.00;;;;;;;;5504602;25;44027;-76
2024/04/13 06:01:46;;;;;;;;;18.00;16.00;;;;;;;;5504096;25;43863;-76
2024/04/13 06:04:11;;;;;;;;;19.33;19.00;;;;;;;;5503803;25;44059;-76
2024/04/13 06:06:36;;;;;;;;;18.67;17.33;;;;;;;;5504100;25;43911;-76
2024/04/13 06:09:02;;;;;;;;;18.33;17.33;;;;;;;;5504170;25;43811;-74
2024/04/13 06:11:28;;;;;;;;;17.33;15.33;;;;;;;;5503819;25;43908;-77
2024/04/13 06:13:53;;;;;;;;;31.33;29.00;;;;;;;;5503948;25;43859;-76
2024/04/13 06:16:18;;;;;;;;;29.33;28.33;;;;;;;;5503696;25;43861;-76
2024/04/13 06:18:43;;;;;;;;;19.67;18.33;;;;;;;;5503889;25;43817;-77
2024/04/13 06:21:08;;;;;;;;;22.00;20.67;;;;;;;;5503579;25;43849;-77
2024/04/13 06:23:34;;;;;;;;;21.00;18.00;;;;;;;;5503832;25;44761;-76
2024/04/13 06:25:59;;;;;;;;;18.00;17.00;;;;;;;;5502427;25;43743;-76
2024/04/13 06:28:26;;;;;;;;;19.67;17.33;;;;;;;;5504322;25;43725;-77
2024/04/13 06:30:51;;;;;;;;;22.33;19.67;;;;;;;;5503819;25;43951;-76
2024/04/13 06:33:16;;;;;;;;;20.67;19.33;;;;;;;;5503591;25;44849;-76
2024/04/13 06:35:42;;;;;;;;;23.00;21.00;;;;;;;;5502714;25;43655;-76
2024/04/13 06:38:07;;;;;;;;;22.67;21.00;;;;;;;;5503897;25;43973;-76
2024/04/13 06:40:35;;;;;;;;;21.67;20.33;;;;;;;;5503462;25;43814;-76
2024/04/13 06:43:01;;;;;;;;;25.00;21.67;;;;;;;;5503466;25;45196;-76
2024/04/13 06:45:27;;;;;;;;;18.00;16.33;;;;;;;;5503121;25;44001;-76
2024/04/13 06:47:52;;;;;;;;;21.33;21.33;;;;;;;;5503674;25;43893;-76
2024/04/13 06:50:17;;;;;;;;;25.67;23.33;;;;;;;;5502709;25;43911;-76
2024/04/13 06:52:42;;;;;;;;;21.33;21.00;;;;;;;;5501126;25;44777;-76
2024/04/13 06:55:07;;;;;;;;;22.67;22.67;;;;;;;;5503891;25;43905;-76
2024/04/13 06:57:33;;;;;;;;;22.67;22.67;;;;;;;;5503468;25;43729;-77
2024/04/13 06:59:58;;;;;;;;;25.33;22.67;;;;;;;;5503702;25;43760;-77
2024/04/13 07:02:23;;;;;;;;;19.67;19.67;;;;;;;;5503585;25;44051;-76
2024/04/13 07:04:50;;;;;;;;;16.33;16.33;;;;;;;;5503506;25;43845;-78
2024/04/13 07:07:15;;;;;;;;;20.00;17.00;;;;;;;;5503749;25;43722;-77
2024/04/13 07:09:41;;;;;;;;;17.00;17.00;;;;;;;;5503501;25;43838;-76
2024/04/13 07:12:08;;;;;;;;;16.00;15.33;;;;;;;;5502954;25;43817;-75
2024/04/13 07:14:33;;;;;;;;;12.33;10.67;;;;;;;;5502692;25;43725;-76
2024/04/13 07:16:58;;;;;;;;;13.67;13.67;;;;;;;;5502905;25;44063;-76
2024/04/13 07:19:23;;;;;;;;;12.00;12.00;;;;;;;;5502962;25;43777;-76
2024/04/13 07:21:49;;;;;;;;;12.00;11.67;;;;;;;;5502603;25;44015;-76
2024/04/13 07:24:14;;;;;;;;;11.00;10.67;;;;;;;;5503227;25;43825;-76
2024/04/13 07:26:39;;;;;;;;;11.33;11.33;;;;;;;;5503340;25;43821;-76
2024/04/13 07:29:04;;;;;;;;;10.67;10.67;;;;;;;;5503136;25;43841;-76
2024/04/13 07:31:30;;;;;;;;;13.67;11.67;;;;;;;;5502996;25;43893;-76
2024/04/13 07:33:55;;;;;;;;;12.67;11.00;;;;;;;;5505592;25;43775;-75
2024/04/13 07:36:20;;;;;;;;;8.67;8.67;;;;;;;;5497397;25;44019;-76
2024/04/13 07:38:45;;;;;;;;;10.33;10.33;;;;;;;;5492140;25;43973;-77
2024/04/13 07:41:11;;;;;;;;;7.67;7.67;;;;;;;;5502166;25;44079;-76
2024/04/13 07:43:36;;;;;;;;;8.00;8.00;;;;;;;;5500741;25;43917;-76
2024/04/13 07:46:01;;;;;;;;;7.67;7.67;;;;;;;;5503077;25;44040;-76
2024/04/13 07:48:26;;;;;;;;;11.33;11.33;;;;;;;;5501958;25;43869;-76
2024/04/13 07:50:51;;;;;;;;;10.67;9.67;;;;;;;;5502235;25;44173;-76
2024/04/13 07:53:16;;;;;;;;;11.33;11.33;;;;;;;;5499599;25;43909;-76
2024/04/13 07:55:42;;;;;;;;;8.67;8.67;;;;;;;;5502508;25;43999;-76
2024/04/13 07:58:07;;;;;;;;;7.67;7.33;;;;;;;;5502340;25;43816;-76
2024/04/13 08:00:32;;;;;;;;;7.33;7.33;;;;;;;;5502402;25;44075;-76
2024/04/13 08:02:57;;;;;;;;;8.33;8.33;;;;;;;;5502562;25;44007;-76
2024/04/13 08:05:23;;;;;;;;;10.00;10.00;;;;;;;;5502466;25;43830;-76
2024/04/13 08:07:49;;;;;;;;;11.00;10.00;;;;;;;;5502309;25;44429;-76
2024/04/13 08:10:14;;;;;;;;;8.00;8.00;;;;;;;;5501904;25;44171;-76
2024/04/13 08:12:39;;;;;;;;;6.67;6.67;;;;;;;;5499715;25;44013;-76
2024/04/13 08:15:08;;;;;;;;;8.00;8.00;;;;;;;;5502587;25;43829;-76
2024/04/13 08:17:34;;;;;;;;;9.33;8.00;;;;;;;;5502359;25;43882;-76
2024/04/13 08:19:59;;;;;;;;;7.00;7.00;;;;;;;;5502298;25;43733;-76
2024/04/13 08:22:25;;;;;;;;;7.00;7.00;;;;;;;;5502232;25;43887;-76
2024/04/13 08:24:51;;;;;;;;;9.33;8.33;;;;;;;;5502233;25;43653;-76
2024/04/13 08:27:16;;;;;;;;;9.00;9.00;;;;;;;;5502179;25;43986;-76
2024/04/13 08:29:41;;;;;;;;;7.67;7.00;;;;;;;;5502034;25;43953;-76
2024/04/13 08:32:06;;;;;;;;;6.00;6.00;;;;;;;;5502174;25;43961;-76
2024/04/13 08:34:32;;;;;;;;;8.00;6.00;;;;;;;;5501892;25;43904;-76
2024/04/13 08:36:58;;;;;;;;;8.33;8.33;;;;;;;;5501718;25;43829;-76
2024/04/13 08:39:23;;;;;;;;;6.00;6.00;;;;;;;;5501464;25;43951;-76
2024/04/13 08:42:07;;;;;;;;;5.33;5.33;;;;;;;;5502033;25;43932;-76
2024/04/13 08:44:33;;;;;;;;;8.33;6.33;;;;;;;;5465039;25;43980;-76
2024/04/13 08:46:59;;;;;;;;;9.33;9.33;;;;;;;;5464410;25;43876;-76
2024/04/13 08:49:26;;;;;;;;;10.00;8.67;;;;;;;;5466655;25;43959;-76
2024/04/13 08:51:52;;;;;;;;;5.67;5.67;;;;;;;;5468147;25;43889;-76
2024/04/13 08:54:17;;;;;;;;;6.00;6.00;;;;;;;;5467276;25;44215;-76
2024/04/13 08:56:44;;;;;;;;;5.33;5.00;;;;;;;;5499867;25;44021;-76
2024/04/13 08:59:10;;;;;;;;;4.00;3.00;;;;;;;;5504561;25;43960;-76
2024/04/13 09:01:37;;;;;;;;;6.67;5.00;;;;;;;;5504166;25;43979;-76
2024/04/13 09:04:02;;;;;;;;;6.00;6.00;;;;;;;;5504180;25;43791;-76
2024/04/13 09:06:27;;;;;;;;;9.33;8.00;;;;;;;;5504327;25;43834;-77
2024/04/13 09:08:54;;;;;;;;;8.50;7.00;;;;;;;;5504295;25;44729;-76
2024/04/13 09:11:22;;;;;;;;;8.00;6.00;;;;;;;;5525701;25;43783;-76
2024/04/13 09:13:47;;;;;;;;;6.00;6.00;;;;;;;;5533171;25;43984;-76
2024/04/13 09:16:13;;;;;;;;;6.00;6.00;;;;;;;;5486396;25;43764;-77
2024/04/13 09:18:40;;;;;;;;;9.00;8.00;;;;;;;;5495811;25;43862;-75
2024/04/13 09:21:07;;;;;;;;;3.50;3.50;;;;;;;;5499369;25;43997;-76
2024/04/13 09:23:33;;;;;;;;;6.00;5.75;;;;;;;;5507754;25;43901;-76
2024/04/13 09:26:05;;;;;;;;;8.33;8.00;;;;;;;;5505867;25;43825;-75
2024/04/13 09:28:40;;;;;;;;;6.75;5.75;;;;;;;;5503988;25;44247;-76
2024/04/13 09:31:06;;;;;;;;;2.00;2.00;;;;;;;;5503783;25;44016;-76
2024/04/13 09:33:31;;;;;;;;;8.33;7.67;;;;;;;;5504333;25;43954;-76
2024/04/13 09:35:57;;;;;;;;;6.00;6.00;;;;;;;;5504169;25;43726;-76
2024/04/13 09:38:22;;;;;;;;;6.50;6.50;;;;;;;;5504013;25;43780;-76
2024/04/13 09:40:48;;;;;;;;;8.00;7.00;;;;;;;;5503404;25;44199;-72
2024/04/13 09:43:22;;;;;;;;;7.75;7.75;;;;;;;;5504467;25;43805;-76
2024/04/13 09:45:54;;;;;;;;;6.25;6.25;;;;;;;;5504825;25;43905;-76
2024/04/13 09:48:19;;;;;;;;;9.00;9.00;;;;;;;;5515346;25;44033;-76
2024/04/13 09:50:44;;;;;;;;;6.50;6.50;;;;;;;;5504402;25;43975;-76
2024/04/13 09:53:09;;;;;;;;;6.00;6.00;;;;;;;;5507349;25;44051;-76
2024/04/13 09:55:35;;;;;;;;;3.00;3.00;;;;;;;;5506921;25;43785;-76
2024/04/13 09:58:00;;;;;;;;;6.00;6.00;;;;;;;;5510757;25;44086;-76
2024/04/13 10:00:26;;;;;;;;;7.00;7.00;;;;;;;;5485950;25;44261;-76
2024/04/13 10:02:52;;;;;;;;;9.25;7.00;;;;;;;;5478734;25;43970;-76
2024/04/13 10:05:17;;;;;;;;;5.25;5.25;;;;;;;;5477128;25;44010;-76
2024/04/13 10:07:43;;;;;;;;;6.25;6.25;;;;;;;;5479287;26;43890;-76
2024/04/13 10:10:13;;;;;;;;;6.75;6.75;;;;;;;;5479906;25;43121;-77
2024/04/13 10:12:38;;;;;;;;;6.75;6.75;;;;;;;;5502570;25;43958;-75
2024/04/13 10:15:06;;;;;;;;;4.25;4.25;;;;;;;;5512931;25;44073;-76
2024/04/13 10:17:31;;;;;;;;;6.25;5.00;;;;;;;;5508576;25;44019;-75
2024/04/13 10:19:56;;;;;;;;;6.75;6.75;;;;;;;;5511057;25;43941;-76
2024/04/13 10:22:22;;;;;;;;;5.75;5.75;;;;;;;;5516944;25;43928;-75
2024/04/13 10:24:47;;;;;;;;;6.75;5.00;;;;;;;;5512226;25;43843;-75
2024/04/13 10:27:12;;;;;;;;;5.50;5.50;;;;;;;;5509451;25;44752;-75
2024/04/13 10:29:40;;;;;;;;;6.75;5.00;;;;;;;;5510644;25;43907;-75
2024/04/13 10:32:16;;;;;;;;;6.25;5.50;;;;;;;;5509872;25;43952;-75
2024/04/13 10:34:41;;;;;;;;;4.50;4.50;;;;;;;;5510395;25;43941;-76
2024/04/13 10:37:22;;;;;;;;;5.50;5.50;;;;;;;;5533015;25;43992;-76
2024/04/13 10:39:54;;;;;;;;;4.25;4.00;;;;;;;;5539473;25;43954;-76
2024/04/13 10:42:19;;;;;;;;;5.00;5.00;;;;;;;;5540915;25;44165;-75
2024/04/13 10:44:44;;;;;;;;;4.25;4.25;;;;;;;;5541081;25;43987;-75
2024/04/13 10:47:09;;;;;;;;;4.75;4.00;;;;;;;;5540216;25;43901;-78
2024/04/13 10:49:35;;;;;;;;;3.00;2.75;;;;;;;;5469833;25;43877;-76
2024/04/13 10:52:01;;;;;;;;;4.50;4.50;;;;;;;;5466731;25;43689;-76
2024/04/13 10:54:26;;;;;;;;;3.75;3.00;;;;;;;;5466243;26;43935;-76
2024/04/13 10:56:51;;;;;;;;;3.50;3.00;;;;;;;;5472959;25;44145;-76
2024/04/13 10:59:17;;;;;;;;;3.50;3.50;;;;;;;;5502522;25;43859;-77
2024/04/13 11:01:43;;;;;;;;;1.00;1.00;;;;;;;;5502610;25;43825;-76
2024/04/13 11:04:10;;;;;;;;;3.25;3.25;;;;;;;;5502142;25;43899;-77
2024/04/13 11:06:37;;;;;;;;;3.50;3.50;;;;;;;;5502356;25;44654;-76
2024/04/13 11:09:03;;;;;;;;;4.25;4.25;;;;;;;;5501900;25;43711;-77
2024/04/13 11:11:28;;;;;;;;;5.00;4.75;;;;;;;;5501409;25;44006;-76
2024/04/13 11:13:53;;;;;;;;;5.50;5.50;;;;;;;;5502205;25;44256;-75
2024/04/13 11:16:18;;;;;;;;;5.25;3.75;;;;;;;;5501903;25;44426;-76
2024/04/13 11:18:43;;;;;;;;;4.25;4.25;;;;;;;;5500183;25;44296;-77
2024/04/13 11:21:10;;;;;;;;;3.25;3.25;;;;;;;;5496446;25;43765;-75
2024/04/13 11:23:35;;;;;;;;;5.50;5.25;;;;;;;;5502722;25;43972;-76
2024/04/13 11:26:02;;;;;;;;;4.00;4.00;;;;;;;;5501826;25;44734;-76
2024/04/13 11:28:27;;;;;;;;;4.00;4.00;;;;;;;;5501307;25;43994;-77
2024/04/13 11:30:53;;;;;;;;;3.00;3.00;;;;;;;;5498684;25;43941;-76
2024/04/13 11:33:18;;;;;;;;;4.50;3.50;;;;;;;;5497955;25;44084;-79
2024/04/13 11:36:02;;;;;;;;;4.00;4.00;;;;;;;;5500752;25;44725;-76
2024/04/13 11:38:33;;;;;;;;;3.50;3.50;;;;;;;;5502231;25;43889;-76
2024/04/13 11:40:59;;;;;;;;;5.00;5.00;;;;;;;;5502329;25;43993;-77
2024/04/13 11:43:24;;;;;;;;;3.50;3.00;;;;;;;;5502613;25;43908;-76
2024/04/13 11:45:49;;;;;;;;;2.75;2.75;;;;;;;;5502094;25;44564;-77
2024/04/13 11:48:14;;;;;;;;;4.00;4.00;;;;;;;;5502942;25;43882;-77
2024/04/13 11:50:40;;;;;;;;;3.50;3.50;;;;;;;;5503167;25;43865;-76
2024/04/13 11:53:06;;;;;;;;;5.00;3.50;;;;;;;;5503133;25;43870;-76
2024/04/13 11:55:31;;;;;;;;;3.75;3.75;;;;;;;;5502194;25;44907;-77
2024/04/13 11:57:57;;;;;;;;;2.50;0.00;;;;;;;;5502455;25;43865;-76
2024/04/13 12:00:23;;;;;;;;;3.00;3.00;;;;;;;;5501734;25;44028;-77
2024/04/13 12:02:48;;;;;;;;;3.25;1.75;;;;;;;;5501250;25;43909;-76
2024/04/13 12:05:14;;;;;;;;;2.75;2.75;;;;;;;;5502374;25;43788;-76
2024/04/13 12:07:39;;;;;;;;;4.00;4.00;;;;;;;;5502887;25;43911;-77
2024/04/13 12:10:05;;;;;;;;;2.50;2.50;;;;;;;;5502659;25;43746;-76
2024/04/13 12:12:31;;;;;;;;;3.00;3.00;;;;;;;;5502240;25;43768;-77
2024/04/13 12:14:56;;;;;;;;;3.00;3.00;;;;;;;;5500986;25;44837;-76
2024/04/13 12:17:21;;;;;;;;;3.00;2.50;;;;;;;;5501356;25;43889;-76
2024/04/13 12:19:46;;;;;;;;;2.00;2.00;;;;;;;;5502541;25;43854;-76
2024/04/13 12:22:12;;;;;;;;;3.00;3.00;;;;;;;;5501796;25;43662;-76
2024/04/13 12:24:37;;;;;;;;;3.00;3.00;;;;;;;;5501561;25;44125;-77
2024/04/13 12:27:04;;;;;;;;;1.75;1.75;;;;;;;;5502064;25;43887;-76
2024/04/13 12:29:29;;;;;;;;;4.00;4.00;;;;;;;;5500657;25;43864;-77
2024/04/13 12:31:55;;;;;;;;;3.50;3.50;;;;;;;;5502255;25;43864;-76
2024/04/13 12:34:20;;;;;;;;;4.75;4.25;;;;;;;;5502029;25;43988;-76
2024/04/13 12:36:45;;;;;;;;;2.75;2.75;;;;;;;;5502097;25;43955;-76
2024/04/13 12:39:10;;;;;;;;;2.00;2.00;;;;;;;;5502467;25;43925;-76
2024/04/13 12:41:36;;;;;;;;;4.00;3.75;;;;;;;;5501827;25;44011;-76
2024/04/13 12:44:02;;;;;;;;;1.50;1.50;;;;;;;;5501831;25;43761;-76
2024/04/13 12:46:27;;;;;;;;;3.00;3.00;;;;;;;;5500973;25;43866;-77
2024/04/13 12:48:52;;;;;;;;;2.75;2.75;;;;;;;;5501638;25;43873;-75
2024/04/13 12:51:18;;;;;;;;;1.00;1.00;;;;;;;;5501120;25;43766;-76
2024/04/13 12:53:44;;;;;;;;;4.50;4.25;;;;;;;;5501205;25;44043;-76
2024/04/13 12:56:09;;;;;;;;;4.25;3.00;;;;;;;;5501049;25;44004;-76
2024/04/13 12:58:34;;;;;;;;;1.00;1.00;;;;;;;;5501534;25;43817;-75
2024/04/13 13:01:00;;;;;;;;;2.00;2.00;;;;;;;;5501489;25;43824;-76
2024/04/13 13:03:26;;;;;;;;;3.00;3.00;;;;;;;;5501438;25;44982;-76
2024/04/13 13:05:52;;;;;;;;;2.40;2.40;;;;;;;;5500697;25;43862;-76
2024/04/13 13:08:17;;;;;;;;;2.00;2.00;;;;;;;;5500652;25;43964;-76
2024/04/13 13:10:42;;;;;;;;;3.75;3.25;;;;;;;;5499573;25;44201;-76
2024/04/13 13:13:07;;;;;;;;;1.50;1.50;;;;;;;;5500195;25;44337;-76
2024/04/13 13:15:33;;;;;;;;;3.00;3.00;;;;;;;;5499744;25;43804;-76
2024/04/13 13:17:58;;;;;;;;;2.00;1.75;;;;;;;;5501333;25;43970;-77
2024/04/13 13:20:23;;;;;;;;;2.50;2.25;;;;;;;;5499763;25;43976;-75
2024/04/13 13:22:48;;;;;;;;;2.00;2.00;;;;;;;;5500456;25;44766;-74
2024/04/13 13:25:13;;;;;;;;;1.50;1.50;;;;;;;;5500235;25;43968;-77
2024/04/13 13:27:38;;;;;;;;;2.25;2.25;;;;;;;;5500376;25;43941;-76
2024/04/13 13:30:05;;;;;;;;;4.00;3.25;;;;;;;;5500743;25;44323;-77
2024/04/13 13:32:30;;;;;;;;;1.00;1.00;;;;;;;;5500711;25;43728;-77
2024/04/13 13:34:55;;;;;;;;;2.00;2.00;;;;;;;;5501805;25;43819;-77
2024/04/13 13:37:21;;;;;;;;;1.75;1.75;;;;;;;;5504356;25;43930;-76
2024/04/13 13:39:46;;;;;;;;;1.25;1.25;;;;;;;;5503985;25;44074;-76
2024/04/13 13:42:11;;;;;;;;;1.00;1.00;;;;;;;;5503847;25;44067;-76
2024/04/13 13:44:36;;;;;;;;;2.50;2.50;;;;;;;;5503783;25;44003;-76
2024/04/13 13:47:01;;;;;;;;;2.75;2.75;;;;;;;;5503915;25;43796;-76
2024/04/13 13:49:26;;;;;;;;;1.50;1.50;;;;;;;;5504001;25;44054;-76
2024/04/13 13:51:52;;;;;;;;;2.75;1.25;;;;;;;;5503841;25;43903;-76
2024/04/13 13:54:17;;;;;;;;;2.25;2.25;;;;;;;;5503432;25;43917;-76
2024/04/13 13:56:43;;;;;;;;;1.50;1.50;;;;;;;;5503689;25;43984;-76
2024/04/13 13:59:10;;;;;;;;;2.00;2.00;;;;;;;;5504342;25;43948;-76
2024/04/13 14:01:35;;;;;;;;;2.00;2.00;;;;;;;;5503578;25;44894;-76
2024/04/13 14:04:00;;;;;;;;;3.25;2.00;;;;;;;;5504065;25;44042;-76
2024/04/13 14:06:25;;;;;;;;;3.00;3.00;;;;;;;;5504241;25;43965;-76
2024/04/13 14:08:50;;;;;;;;;2.00;2.00;;;;;;;;5503936;25;43818;-76
2024/04/13 14:11:16;;;;;;;;;2.25;2.25;;;;;;;;5503636;25;43887;-75
2024/04/13 14:13:41;;;;;;;;;3.00;2.75;;;;;;;;5503833;25;44012;-76
2024/04/13 14:16:06;;;;;;;;;4.00;4.00;;;;;;;;5503423;25;43811;-76
2024/04/13 14:18:31;;;;;;;;;2.75;2.75;;;;;;;;5503751;25;43876;-76